createdAt,value
2022-12-27T00:00:14.486Z,14.40
2022-12-27T00:03:03.087Z,15.50
2022-12-27T00:05:31.699Z,15.00
2022-12-27T00:08:00.319Z,14.10
2022-12-27T00:10:28.855Z,14.10
2022-12-27T00:12:57.383Z,14.50
2022-12-27T00:15:27.514Z,15.10
2022-12-27T00:17:56.095Z,15.60
2022-12-27T00:20:24.748Z,13.70
2022-12-27T00:22:53.304Z,15.70
2022-12-27T00:25:21.941Z,15.20
2022-12-27T00:27:50.457Z,15.70
2022-12-27T00:30:19.260Z,15.60
2022-12-27T00:32:47.750Z,14.80
2022-12-27T00:35:16.313Z,15.40
2022-12-27T00:37:44.952Z,15.70
2022-12-27T00:40:13.686Z,15.00
2022-12-27T00:42:42.214Z,15.60
2022-12-27T00:45:11.511Z,16.70
2022-12-27T00:47:40.453Z,15.00
2022-12-27T00:50:09.588Z,14.60
2022-12-27T00:52:38.194Z,15.50
2022-12-27T00:55:07.120Z,15.40
2022-12-27T00:57:35.651Z,15.60
2022-12-27T01:00:10.401Z,17.30
2022-12-27T01:02:39.822Z,15.80
2022-12-27T01:05:09.282Z,16.10
2022-12-27T01:07:37.796Z,15.60
2022-12-27T01:10:07.062Z,14.80
2022-12-27T01:12:36.941Z,13.90
2022-12-27T01:15:07.827Z,14.40
2022-12-27T01:17:36.517Z,14.80
2022-12-27T01:20:06.151Z,15.10
2022-12-27T01:22:34.752Z,15.50
2022-12-27T01:25:03.476Z,16.70
2022-12-27T01:27:32.017Z,14.00
2022-12-27T01:30:00.587Z,14.80
2022-12-27T01:32:29.656Z,14.30
2022-12-27T01:34:58.092Z,14.50
2022-12-27T01:37:29.361Z,13.50
2022-12-27T01:39:58.091Z,14.70
2022-12-27T01:42:46.190Z,14.20
2022-12-27T01:45:28.097Z,14.20
2022-12-27T01:48:35.336Z,14.20
2022-12-27T01:51:05.962Z,13.60
2022-12-27T01:53:39.003Z,14.30
2022-12-27T01:56:27.921Z,13.70
2022-12-27T01:59:06.338Z,13.40
2022-12-27T02:01:42.816Z,14.30
2022-12-27T02:04:16.666Z,14.60
2022-12-27T02:06:45.401Z,14.60
2022-12-27T02:09:30.345Z,13.40
2022-12-27T02:12:02.005Z,13.90
2022-12-27T02:14:45.336Z,13.50
2022-12-27T02:17:16.008Z,13.50
2022-12-27T02:20:00.736Z,14.10
2022-12-27T02:23:09.458Z,14.60
2022-12-27T02:25:58.893Z,14.40
2022-12-27T02:28:34.396Z,14.60
2022-12-27T02:31:15.407Z,14.30
2022-12-27T02:33:48.102Z,14.30
2022-12-27T02:36:24.383Z,14.40
2022-12-27T02:38:58.816Z,13.90
2022-12-27T02:41:48.885Z,14.30
2022-12-27T02:44:38.713Z,14.30
2022-12-27T02:47:45.036Z,13.70
2022-12-27T02:50:34.295Z,13.50
2022-12-27T02:53:21.661Z,13.00
2022-12-27T02:56:30.022Z,13.90
2022-12-27T03:00:11.799Z,13.70
2022-12-27T03:03:29.103Z,13.40
2022-12-27T03:06:41.027Z,14.50
2022-12-27T03:10:08.806Z,13.60
2022-12-27T03:13:20.906Z,13.20
2022-12-27T03:16:22.023Z,14.80
2022-12-27T03:19:36.214Z,13.80
2022-12-27T03:22:50.054Z,14.60
2022-12-27T03:25:31.159Z,14.80
2022-12-27T03:28:31.125Z,13.60
2022-12-27T03:31:36.644Z,13.70
2022-12-27T03:34:28.047Z,13.80
2022-12-27T03:40:07.287Z,13.20
2022-12-27T03:43:03.375Z,14.20
2022-12-27T03:46:35.545Z,15.00
2022-12-27T03:49:25.647Z,14.90
2022-12-27T03:52:17.370Z,15.30
2022-12-27T03:54:49.032Z,14.00
2022-12-27T03:57:21.626Z,14.20
2022-12-27T03:59:50.458Z,14.40
2022-12-27T04:02:20.048Z,15.20
2022-12-27T04:04:49.289Z,14.90
2022-12-27T04:07:18.406Z,14.10
2022-12-27T04:10:05.332Z,13.70
2022-12-27T04:12:52.200Z,13.50
2022-12-27T04:15:39.412Z,13.50
2022-12-27T04:18:26.399Z,14.40
2022-12-27T04:21:13.445Z,14.40
2022-12-27T04:24:00.550Z,14.40
2022-12-27T04:26:47.360Z,14.00
2022-12-27T04:29:34.191Z,14.00
2022-12-27T04:32:23.072Z,14.60
2022-12-27T04:34:51.854Z,14.00
2022-12-27T04:37:20.709Z,13.70
2022-12-27T04:40:29.861Z,13.30
2022-12-27T04:43:16.668Z,14.90
2022-12-27T04:46:03.910Z,14.20
2022-12-27T04:48:51.221Z,13.80
2022-12-27T04:51:38.174Z,14.80
2022-12-27T04:54:55.056Z,13.80
2022-12-27T04:57:24.023Z,13.90
2022-12-27T05:00:10.852Z,15.60
2022-12-27T05:02:40.146Z,16.20
2022-12-27T05:05:09.779Z,16.40
2022-12-27T05:07:57.259Z,15.10
2022-12-27T05:10:45.255Z,13.90
2022-12-27T05:13:33.361Z,15.30
2022-12-27T05:16:02.125Z,15.10
2022-12-27T05:18:30.678Z,14.10
2022-12-27T05:21:07.786Z,14.90
2022-12-27T05:24:00.199Z,14.20
2022-12-27T05:26:32.897Z,14.50
2022-12-27T05:29:02.051Z,14.50
2022-12-27T05:31:30.711Z,14.80
2022-12-27T05:34:00.655Z,14.40
2022-12-27T05:36:29.569Z,15.60
2022-12-27T05:38:59.667Z,14.70
2022-12-27T05:41:28.371Z,20.10
2022-12-27T05:44:04.782Z,19.90
2022-12-27T05:46:36.404Z,19.90
2022-12-27T05:49:05.578Z,17.60
2022-12-27T05:51:34.356Z,18.90
2022-12-27T05:54:02.947Z,16.90
2022-12-27T05:56:35.824Z,16.20
2022-12-27T05:59:05.206Z,15.40
2022-12-27T06:01:34.486Z,16.10
2022-12-27T06:05:06.485Z,14.90
2022-12-27T06:07:40.149Z,14.20
2022-12-27T06:10:13.475Z,14.70
2022-12-27T06:13:10.923Z,15.70
2022-12-27T06:15:39.946Z,17.20
2022-12-27T06:18:09.375Z,16.40
2022-12-27T06:20:38.646Z,16.10
2022-12-27T06:23:07.826Z,16.60
2022-12-27T06:25:39.132Z,18.30
2022-12-27T06:28:08.394Z,18.60
2022-12-27T06:30:43.231Z,16.60
2022-12-27T06:33:18.338Z,15.70
2022-12-27T06:36:17.385Z,16.90
2022-12-27T06:38:47.099Z,17.50
2022-12-27T06:41:19.373Z,16.70
2022-12-27T06:44:04.400Z,15.50
2022-12-27T06:46:34.982Z,15.80
2022-12-27T06:49:07.365Z,16.80
2022-12-27T07:01:37.525Z,14.10
2022-12-27T07:04:12.046Z,15.70
2022-12-27T07:06:41.872Z,14.50
2022-12-27T07:09:19.202Z,14.20
2022-12-27T07:12:14.928Z,15.30
2022-12-27T07:14:48.086Z,15.20
2022-12-27T07:17:17.885Z,15.70
2022-12-27T07:19:48.487Z,15.00
2022-12-27T07:22:23.074Z,14.10
2022-12-27T07:24:52.259Z,15.50
2022-12-27T07:27:22.320Z,15.30
2022-12-27T07:29:52.561Z,16.90
2022-12-27T07:32:23.199Z,16.50
2022-12-27T07:34:56.472Z,15.70
2022-12-27T07:48:04.003Z,15.30
2022-12-27T07:50:33.539Z,15.70
2022-12-27T07:53:05.219Z,15.50
2022-12-27T07:55:43.198Z,15.00
2022-12-27T07:58:20.772Z,16.00
2022-12-27T08:00:53.468Z,16.20
2022-12-27T08:03:23.235Z,15.20
2022-12-27T08:05:56.238Z,15.90
2022-12-27T08:08:33.303Z,16.90
2022-12-27T08:11:05.690Z,17.80
2022-12-27T08:13:36.154Z,14.80
2022-12-27T08:16:06.361Z,14.90
2022-12-27T08:18:36.203Z,16.10
2022-12-27T08:21:10.832Z,17.80
2022-12-27T08:23:43.139Z,16.90
2022-12-27T08:26:12.617Z,14.70
2022-12-27T08:28:41.800Z,15.50
2022-12-27T08:31:13.009Z,16.40
2022-12-27T08:36:54.062Z,17.20
2022-12-27T08:39:03.016Z,19.50
2022-12-27T08:41:37.296Z,23.90
2022-12-27T08:44:07.906Z,28.50
2022-12-27T08:46:37.235Z,28.50
2022-12-27T08:49:10.644Z,28.40
2022-12-27T08:51:45.201Z,46.70
2022-12-27T08:54:15.988Z,34.80
2022-12-27T08:56:47.641Z,34.50
2022-12-27T08:59:17.299Z,33.10
2022-12-27T09:01:46.810Z,33.00
2022-12-27T09:04:15.805Z,46.60
2022-12-27T09:06:46.341Z,49.60
2022-12-27T09:09:15.576Z,53.40
2022-12-27T09:11:44.861Z,54.90
2022-12-27T09:14:13.733Z,56.40
2022-12-27T09:16:54.598Z,57.90
2022-12-27T09:21:13.267Z,60.70
2022-12-27T09:23:43.239Z,61.10
2022-12-27T09:26:27.306Z,64.50
2022-12-27T09:29:02.383Z,64.10
2022-12-27T09:31:33.166Z,61.80
2022-12-27T09:34:30.905Z,63.60
2022-12-27T09:37:00.138Z,63.60
2022-12-27T09:39:29.152Z,64.60
2022-12-27T09:48:37.402Z,68.00
2022-12-27T09:51:25.510Z,72.10
2022-12-27T09:54:17.787Z,62.30
2022-12-27T09:57:18.210Z,67.90
2022-12-27T09:59:45.733Z,76.00
2022-12-27T10:02:25.244Z,87.60
2022-12-27T10:07:57.242Z,85.70
2022-12-27T10:10:40.604Z,87.90
2022-12-27T10:14:00.304Z,88.90
2022-12-27T10:16:35.130Z,92.50
2022-12-27T10:19:45.108Z,93.00
2022-12-27T10:22:35.232Z,91.40
2022-12-27T10:25:11.953Z,89.70
2022-12-27T10:27:43.400Z,85.10
2022-12-27T10:30:21.377Z,84.30
2022-12-27T10:32:50.973Z,88.30
2022-12-27T10:35:21.902Z,89.00
2022-12-27T10:37:50.986Z,86.70
2022-12-27T10:40:40.815Z,86.10
2022-12-27T10:43:19.671Z,87.70
2022-12-27T10:46:27.514Z,73.30
2022-12-27T10:49:24.741Z,78.30
2022-12-27T10:51:58.301Z,84.30
2022-12-27T10:54:30.349Z,82.40
2022-12-27T10:57:26.338Z,86.60
2022-12-27T11:00:15.991Z,88.10
2022-12-27T11:03:01.207Z,86.40
2022-12-27T11:05:33.854Z,85.20
2022-12-27T11:08:21.283Z,89.40
2022-12-27T11:10:50.300Z,87.40
2022-12-27T11:13:19.532Z,90.50
2022-12-27T11:15:58.687Z,81.40
2022-12-27T11:18:53.084Z,90.60
2022-12-27T11:21:27.816Z,93.90
2022-12-27T11:24:01.481Z,82.30
2022-12-27T11:27:03.924Z,83.70
2022-12-27T11:29:36.358Z,81.10
2022-12-27T11:32:08.314Z,92.80
2022-12-27T11:34:38.512Z,93.20
2022-12-27T11:38:24.557Z,96.40
2022-12-27T11:41:27.693Z,99.10
2022-12-27T11:47:43.594Z,99.20
2022-12-27T11:50:48.814Z,102.00
2022-12-27T11:53:36.093Z,96.00
2022-12-27T11:56:24.538Z,101.40
2022-12-27T11:59:29.070Z,102.80
2022-12-27T12:02:20.596Z,97.20
2022-12-27T12:05:00.177Z,101.30
2022-12-27T12:07:59.932Z,99.00
2022-12-27T12:11:05.829Z,101.80
2022-12-27T12:13:46.488Z,100.60
2022-12-27T12:16:50.500Z,97.90
2022-12-27T12:19:36.558Z,102.50
2022-12-27T12:22:34.587Z,98.40
2022-12-27T12:25:51.682Z,96.40
2022-12-27T12:29:00.699Z,105.10
2022-12-27T12:31:52.984Z,100.70
2022-12-27T12:35:09.030Z,102.00
2022-12-27T12:44:56.434Z,103.60
2022-12-27T12:47:46.850Z,106.80
2022-12-27T12:51:02.566Z,102.20
2022-12-27T12:53:46.972Z,96.10
2022-12-27T12:57:07.460Z,96.00
2022-12-27T12:59:50.085Z,101.00
2022-12-27T13:03:06.776Z,100.80
2022-12-27T13:05:39.170Z,105.60
2022-12-27T13:08:48.505Z,98.50
2022-12-27T13:11:29.705Z,108.90
2022-12-27T13:14:28.064Z,100.50
2022-12-27T13:17:37.067Z,103.70
2022-12-27T13:21:02.101Z,96.70
2022-12-27T13:24:31.879Z,97.30
2022-12-27T13:27:41.372Z,96.40
2022-12-27T13:30:29.605Z,93.40
2022-12-27T13:33:39.935Z,91.30
2022-12-27T13:36:49.225Z,82.70
2022-12-27T13:39:59.067Z,76.00
2022-12-27T13:43:08.546Z,69.70
2022-12-27T13:46:00.565Z,68.50
2022-12-27T13:48:39.051Z,58.60
2022-12-27T13:51:52.081Z,55.10
2022-12-27T13:55:07.113Z,50.70
2022-12-27T14:04:52.311Z,56.30
2022-12-27T14:08:03.337Z,59.30
2022-12-27T14:11:00.579Z,59.40
2022-12-27T14:13:42.168Z,58.40
2022-12-27T14:16:49.957Z,59.50
2022-12-27T14:19:56.163Z,61.60
2022-12-27T14:26:51.512Z,60.10
2022-12-27T14:29:57.528Z,70.50
2022-12-27T14:32:44.019Z,65.70
2022-12-27T14:35:43.618Z,70.50
2022-12-27T14:38:30.795Z,64.30
2022-12-27T14:42:01.111Z,68.70
2022-12-27T14:45:24.062Z,62.80
2022-12-27T15:00:59.181Z,38.80
2022-12-27T15:04:30.255Z,36.60
2022-12-27T15:06:59.613Z,36.60
2022-12-27T15:10:08.515Z,34.60
2022-12-27T15:13:13.442Z,31.30
2022-12-27T15:16:02.868Z,31.50
2022-12-27T15:30:47.590Z,25.80
2022-12-27T15:33:22.460Z,24.90
2022-12-27T15:36:22.126Z,21.30
2022-12-27T15:38:54.919Z,22.10
2022-12-27T15:41:33.236Z,20.20
2022-12-27T15:44:31.230Z,17.70
2022-12-27T15:47:40.146Z,16.50
2022-12-27T15:50:30.971Z,16.20
2022-12-27T15:53:41.792Z,17.90
2022-12-27T15:56:49.737Z,18.50
2022-12-27T15:59:40.452Z,16.90
2022-12-27T16:02:18.724Z,17.70
2022-12-27T16:05:01.039Z,15.20
2022-12-27T16:07:48.835Z,10.40
2022-12-27T16:10:30.444Z,0.10
2022-12-27T16:16:28.762Z,0.30
2022-12-27T16:19:47.714Z,0.00
2022-12-27T16:25:49.425Z,0.00
2022-12-27T16:28:26.973Z,0.10
2022-12-27T16:31:00.287Z,0.00
2022-12-27T16:33:41.280Z,0.50
2022-12-27T16:36:49.034Z,0.20
2022-12-27T16:43:20.217Z,0.00
2022-12-27T16:46:43.172Z,0.20
2022-12-27T16:49:47.932Z,0.40
2022-12-27T16:52:39.929Z,0.10
2022-12-27T16:55:44.157Z,0.00
2022-12-27T16:58:33.988Z,0.00
2022-12-27T17:08:24.199Z,0.00
2022-12-27T17:11:04.936Z,0.10
2022-12-27T17:13:46.091Z,0.00
2022-12-27T17:16:49.402Z,0.20
2022-12-27T17:19:36.060Z,0.00
2022-12-27T17:22:49.889Z,0.00
2022-12-27T17:25:34.038Z,0.10
2022-12-27T17:34:58.276Z,0.10
2022-12-27T17:37:48.473Z,0.00
2022-12-27T17:40:46.644Z,0.00
2022-12-27T17:53:42.739Z,0.10
2022-12-27T17:56:30.273Z,0.20
2022-12-27T17:59:24.149Z,0.60
2022-12-27T18:02:04.709Z,0.00
2022-12-27T18:04:47.532Z,0.00
2022-12-27T18:07:42.729Z,0.30
2022-12-27T18:10:24.424Z,0.00
2022-12-27T18:17:28.932Z,0.00
2022-12-27T18:20:26.781Z,1.00
2022-12-27T18:23:01.798Z,0.10
2022-12-27T18:25:45.293Z,0.00
2022-12-27T18:28:34.708Z,0.60
2022-12-27T18:31:25.129Z,0.00
2022-12-27T18:34:03.802Z,0.00
2022-12-27T18:36:38.693Z,0.00
2022-12-27T18:39:30.247Z,0.10
2022-12-27T18:42:44.891Z,0.10
2022-12-27T18:45:22.560Z,0.00
2022-12-27T18:47:54.366Z,0.00
2022-12-27T18:50:30.372Z,0.00
2022-12-27T18:53:58.856Z,0.00
2022-12-27T19:00:30.901Z,0.10
2022-12-27T19:03:22.525Z,0.10
2022-12-27T19:06:13.188Z,0.00
2022-12-27T19:08:49.434Z,0.40
2022-12-27T19:11:56.934Z,0.00
2022-12-27T19:14:53.320Z,0.30
2022-12-27T19:24:34.704Z,0.00
2022-12-27T19:27:25.161Z,0.60
2022-12-27T19:29:54.270Z,0.00
2022-12-27T19:32:35.002Z,0.10
2022-12-27T19:35:05.134Z,0.10
2022-12-27T19:37:34.340Z,0.10
2022-12-27T19:40:03.542Z,0.00
2022-12-27T19:42:46.304Z,0.00
2022-12-27T19:45:18.207Z,0.00
2022-12-27T19:47:51.672Z,0.30
2022-12-27T19:50:20.850Z,0.10
2022-12-27T19:52:51.159Z,0.00
2022-12-27T19:55:25.507Z,0.10
2022-12-27T19:57:54.487Z,0.50
2022-12-27T20:00:24.507Z,0.10
2022-12-27T20:03:19.175Z,0.00
2022-12-27T20:06:13.058Z,0.10
2022-12-27T20:08:45.778Z,1.50
2022-12-27T20:11:23.156Z,0.50
2022-12-27T20:13:56.542Z,0.00
2022-12-27T20:16:36.786Z,0.00
2022-12-27T20:19:49.451Z,0.30
2022-12-27T20:22:21.627Z,0.40
2022-12-27T20:25:52.272Z,0.10
2022-12-27T20:28:21.532Z,0.00
2022-12-27T20:30:54.579Z,0.00
2022-12-27T20:33:25.360Z,0.00
2022-12-27T20:36:08.245Z,0.00
2022-12-27T20:38:39.959Z,0.00
2022-12-27T20:41:11.147Z,1.00
2022-12-27T20:46:15.038Z,0.00
2022-12-27T20:49:14.999Z,0.00
2022-12-27T20:51:49.197Z,0.00
2022-12-27T20:54:21.290Z,0.30
2022-12-27T20:56:50.631Z,0.00
2022-12-27T20:59:19.528Z,0.00
2022-12-27T21:01:53.014Z,0.00
2022-12-27T21:04:27.150Z,0.10
2022-12-27T21:06:56.342Z,0.10
2022-12-27T21:09:25.443Z,0.00
2022-12-27T21:11:54.505Z,0.10
2022-12-27T21:14:24.224Z,0.30
2022-12-27T21:16:53.328Z,0.60
2022-12-27T21:19:22.225Z,0.10
2022-12-27T21:21:51.157Z,0.20
2022-12-27T21:24:20.203Z,0.70
2022-12-27T21:26:54.702Z,0.00
2022-12-27T21:29:25.835Z,0.00
2022-12-27T21:31:55.039Z,0.70
2022-12-27T21:34:24.125Z,0.00
2022-12-27T21:36:53.004Z,0.10
2022-12-27T21:39:22.076Z,0.00
2022-12-27T21:41:51.487Z,0.00
2022-12-27T21:44:25.458Z,0.00
2022-12-27T21:46:56.339Z,0.00
2022-12-27T21:49:25.063Z,0.10
2022-12-27T21:51:54.223Z,0.00
2022-12-27T21:54:23.632Z,0.10
2022-12-27T21:56:52.475Z,0.00
2022-12-27T21:59:21.398Z,0.20
2022-12-27T22:01:52.657Z,0.00
2022-12-27T22:04:22.221Z,0.30
2022-12-27T22:06:51.364Z,0.00
2022-12-27T22:09:20.286Z,0.20
2022-12-27T22:11:49.585Z,0.00
2022-12-27T22:14:21.967Z,1.70
2022-12-27T22:16:54.579Z,0.00
2022-12-27T22:19:37.624Z,0.00
2022-12-27T22:22:06.731Z,0.00
2022-12-27T22:24:35.571Z,0.10
2022-12-27T22:27:04.620Z,0.20
2022-12-27T22:29:35.571Z,0.00
2022-12-27T22:32:04.870Z,0.00
2022-12-27T22:34:33.689Z,0.00
2022-12-27T22:37:02.648Z,0.10
2022-12-27T22:39:32.742Z,0.00
2022-12-27T22:45:15.269Z,0.00
2022-12-27T22:47:44.312Z,0.00
2022-12-27T22:50:13.851Z,0.00
2022-12-27T22:52:49.125Z,0.20
2022-12-27T22:55:18.400Z,0.20
2022-12-27T22:57:47.013Z,0.00
2022-12-27T23:00:16.484Z,0.10
2022-12-27T23:02:45.391Z,0.00
2022-12-27T23:05:15.016Z,0.10
2022-12-27T23:08:05.781Z,0.00
2022-12-27T23:10:33.060Z,0.10
2022-12-27T23:13:02.067Z,0.10
2022-12-27T23:15:30.935Z,0.00
2022-12-27T23:17:59.828Z,0.10
2022-12-27T23:20:28.553Z,0.00
2022-12-27T23:22:57.286Z,0.00
2022-12-27T23:25:26.601Z,0.00
2022-12-27T23:27:55.480Z,0.20
2022-12-27T23:30:24.766Z,0.20
2022-12-27T23:32:53.875Z,12.40
2022-12-27T23:35:23.120Z,11.90
2022-12-27T23:37:52.091Z,11.90
2022-12-27T23:40:21.182Z,10.70
2022-12-27T23:42:50.433Z,11.50
2022-12-27T23:45:19.478Z,11.70
2022-12-27T23:47:49.047Z,11.80
2022-12-27T23:50:21.040Z,11.10
2022-12-27T23:56:17.702Z,13.80
2022-12-27T23:58:47.442Z,12.20
